Time;durP1;ratioP1;P1;durP2;ratioP2;P2;SDS_P1;SDS_P2;PMS_P1;PMS_P2;Temp;Humidity;BMP_temperature;BMP_pressure;BME280_temperature;BME280_humidity;BME280_pressure;Samples;Min_cycle;Max_cycle;Signal;HPM_P1;HPM_P2
2021/09/04 00:00:27;;;;;;;;;;;19.80;66.70;;;;;;494094;240;1191;-66
2021/09/04 00:02:28;;;;;;;;;;;19.70;66.80;;;;;;494526;240;1160;-66
2021/09/04 00:04:30;;;;;;;;;;;19.70;66.80;;;;;;494094;240;1016;-66
2021/09/04 00:06:31;;;;;;;;;;;19.70;66.80;;;;;;494071;240;1070;-66
2021/09/04 00:08:32;;;;;;;;;;;19.90;66.30;;;;;;494182;240;1048;-66
2021/09/04 00:10:34;;;;;;;;;;;19.90;65.90;;;;;;494202;240;2139;-66
2021/09/04 00:12:35;;;;;;;;;;;19.90;66.10;;;;;;494070;240;1112;-66
2021/09/04 00:14:36;;;;;;;;;;;19.90;66.30;;;;;;494100;240;1168;-66
2021/09/04 00:16:38;;;;;;;;;;;19.90;66.10;;;;;;493992;240;1062;-66
2021/09/04 00:18:39;;;;;;;;;;;19.80;66.20;;;;;;494048;240;1146;-66
2021/09/04 00:20:40;;;;;;;;;;;19.80;66.60;;;;;;494566;240;1054;-66
2021/09/04 00:22:42;;;;;;;;;;;19.80;66.70;;;;;;494570;240;1239;-66
2021/09/04 00:24:43;;;;;;;;;;;19.70;66.80;;;;;;494593;240;1069;-66
2021/09/04 00:26:44;;;;;;;;;;;19.80;66.50;;;;;;494353;240;1041;-66
2021/09/04 00:28:46;;;;;;;;;;;19.80;66.40;;;;;;494106;240;1055;-66
2021/09/04 00:30:47;;;;;;;;;;;19.80;66.20;;;;;;494177;240;2212;-66
2021/09/04 00:32:48;;;;;;;;;;;19.80;66.50;;;;;;494426;240;1186;-66
2021/09/04 00:34:51;;;;;;;;;;;19.80;66.50;;;;;;494483;240;1046;-66
2021/09/04 00:36:51;;;;;;;;;;;19.80;66.60;;;;;;494020;241;1392;-66
2021/09/04 00:38:52;;;;;;;;;;;20.00;65.90;;;;;;494099;240;1071;-66
2021/09/04 00:40:54;;;;;;;;;;;20.20;65.30;;;;;;494094;240;1131;-66
2021/09/04 00:42:55;;;;;;;;;;;20.40;64.60;;;;;;494109;240;1050;-66
2021/09/04 00:44:56;;;;;;;;;;;20.50;64.10;;;;;;494212;240;1174;-66
2021/09/04 00:46:58;;;;;;;;;;;20.50;63.80;;;;;;494109;240;1057;-66
2021/09/04 00:48:59;;;;;;;;;;;20.40;64.30;;;;;;494331;240;1087;-66
2021/09/04 00:51:00;;;;;;;;;;;20.20;64.90;;;;;;494005;240;2179;-66
2021/09/04 00:53:01;;;;;;;;;;;20.10;65.50;;;;;;494096;240;1111;-66
2021/09/04 00:55:03;;;;;;;;;;;20.00;65.80;;;;;;494074;240;1054;-66
2021/09/04 00:57:04;;;;;;;;;;;19.90;66.10;;;;;;493984;240;1116;-66
2021/09/04 00:59:05;;;;;;;;;;;19.80;66.20;;;;;;494083;240;1060;-66
2021/09/04 01:01:07;;;;;;;;;;;19.90;66.10;;;;;;494033;240;1359;-66
2021/09/04 01:03:08;;;;;;;;;;;19.90;66.00;;;;;;494499;240;1057;-65
2021/09/04 01:05:09;;;;;;;;;;;19.80;66.20;;;;;;494288;240;1064;-65
2021/09/04 01:07:11;;;;;;;;;;;19.80;66.50;;;;;;494482;240;1098;-65
2021/09/04 01:09:12;;;;;;;;;;;19.70;66.60;;;;;;494558;240;1064;-65
2021/09/04 01:11:13;;;;;;;;;;;19.70;66.80;;;;;;494363;240;2138;-65
2021/09/04 01:13:15;;;;;;;;;;;19.70;66.90;;;;;;494137;240;1071;-66
2021/09/04 01:15:17;;;;;;;;;;;19.60;66.90;;;;;;494104;240;1190;-66
2021/09/04 01:17:17;;;;;;;;;;;19.60;67.00;;;;;;494042;240;1408;-66
2021/09/04 01:19:19;;;;;;;;;;;19.70;67.00;;;;;;494544;240;1056;-66
2021/09/04 01:21:20;;;;;;;;;;;19.80;66.70;;;;;;494316;240;1062;-66
2021/09/04 01:23:21;;;;;;;;;;;19.90;66.10;;;;;;494208;240;1035;-66
2021/09/04 01:25:23;;;;;;;;;;;19.90;65.90;;;;;;494089;240;1045;-66
2021/09/04 01:27:24;;;;;;;;;;;19.80;66.10;;;;;;494066;240;1044;-66
2021/09/04 01:29:25;;;;;;;;;;;19.80;66.30;;;;;;494260;240;1242;-65
2021/09/04 01:31:27;;;;;;;;;;;19.70;66.60;;;;;;494250;240;2167;-65
2021/09/04 01:33:28;;;;;;;;;;;19.70;66.80;;;;;;494215;240;1046;-65
2021/09/04 01:35:29;;;;;;;;;;;19.70;66.90;;;;;;494244;240;1092;-65
2021/09/04 01:37:31;;;;;;;;;;;19.90;66.40;;;;;;494069;240;1050;-66
2021/09/04 01:39:33;;;;;;;;;;;20.00;65.80;;;;;;494498;240;1091;-66
2021/09/04 01:41:33;;;;;;;;;;;20.00;65.70;;;;;;493991;240;1632;-66
2021/09/04 01:43:35;;;;;;;;;;;19.90;66.00;;;;;;494090;240;1254;-66
2021/09/04 01:45:36;;;;;;;;;;;19.90;66.20;;;;;;494066;240;1152;-66
2021/09/04 01:47:37;;;;;;;;;;;19.80;66.40;;;;;;494405;240;1083;-66
2021/09/04 01:49:39;;;;;;;;;;;19.90;66.20;;;;;;494091;240;1041;-66
2021/09/04 01:51:40;;;;;;;;;;;19.90;66.10;;;;;;494067;240;2146;-66
2021/09/04 01:53:41;;;;;;;;;;;20.00;65.80;;;;;;494323;240;1110;-66
2021/09/04 01:55:43;;;;;;;;;;;19.90;66.00;;;;;;494161;240;1045;-66
2021/09/04 01:57:44;;;;;;;;;;;19.80;66.20;;;;;;494062;240;1286;-66
2021/09/04 01:59:46;;;;;;;;;;;19.80;66.50;;;;;;494260;240;1083;-66
2021/09/04 02:01:47;;;;;;;;;;;19.70;66.70;;;;;;494125;240;1321;-66
2021/09/04 02:03:48;;;;;;;;;;;19.80;66.70;;;;;;494411;240;1037;-66
2021/09/04 02:05:49;;;;;;;;;;;19.80;66.60;;;;;;494302;240;1067;-65
2021/09/04 02:07:51;;;;;;;;;;;19.70;66.60;;;;;;494099;240;1027;-66
2021/09/04 02:09:52;;;;;;;;;;;19.70;66.50;;;;;;494157;240;1080;-66
2021/09/04 02:11:53;;;;;;;;;;;19.90;66.10;;;;;;494518;240;2146;-66
2021/09/04 02:13:55;;;;;;;;;;;20.10;65.40;;;;;;494573;240;1059;-66
2021/09/04 02:15:56;;;;;;;;;;;20.30;64.70;;;;;;494504;240;1134;-66
2021/09/04 02:17:57;;;;;;;;;;;20.30;64.70;;;;;;494454;240;1167;-66
2021/09/04 02:19:59;;;;;;;;;;;20.10;65.10;;;;;;494617;240;1058;-66
2021/09/04 02:22:00;;;;;;;;;;;20.00;65.60;;;;;;494574;240;1039;-66
2021/09/04 02:24:01;;;;;;;;;;;19.90;65.90;;;;;;494342;240;1099;-66
2021/09/04 02:26:03;;;;;;;;;;;19.80;66.10;;;;;;494526;240;1135;-66
2021/09/04 02:28:04;;;;;;;;;;;19.80;66.40;;;;;;494337;240;1085;-66
2021/09/04 02:30:05;;;;;;;;;;;19.70;66.60;;;;;;494200;240;1118;-66
2021/09/04 02:32:07;;;;;;;;;;;19.70;66.60;;;;;;494040;240;2151;-66
2021/09/04 02:34:09;;;;;;;;;;;19.70;66.70;;;;;;494577;240;1074;-66
2021/09/04 02:36:09;;;;;;;;;;;19.70;66.80;;;;;;494003;240;1486;-66
2021/09/04 02:38:11;;;;;;;;;;;19.60;66.80;;;;;;494125;240;1035;-66
2021/09/04 02:40:12;;;;;;;;;;;19.80;66.40;;;;;;494082;240;1046;-66
2021/09/04 02:42:13;;;;;;;;;;;19.80;66.40;;;;;;494013;240;1060;-66
2021/09/04 02:44:14;;;;;;;;;;;19.80;66.30;;;;;;494094;240;974;-66
2021/09/04 02:46:16;;;;;;;;;;;19.90;66.00;;;;;;494173;240;1158;-66
2021/09/04 02:48:17;;;;;;;;;;;20.10;65.40;;;;;;494142;240;1192;-66
2021/09/04 02:50:19;;;;;;;;;;;20.30;64.70;;;;;;494271;240;1040;-66
2021/09/04 02:52:21;;;;;;;;;;;20.40;64.20;;;;;;494497;240;2140;-66
2021/09/04 02:54:22;;;;;;;;;;;20.50;63.80;;;;;;494083;240;1075;-66
2021/09/04 02:56:23;;;;;;;;;;;20.70;63.50;;;;;;494059;240;1074;-66
2021/09/04 02:58:25;;;;;;;;;;;20.70;63.20;;;;;;494357;240;1096;-66
2021/09/04 03:00:26;;;;;;;;;;;20.80;63.00;;;;;;494385;240;1107;-66
2021/09/04 03:02:28;;;;;;;;;;;20.90;62.90;;;;;;494282;240;1177;-66
2021/09/04 03:04:29;;;;;;;;;;;20.90;62.70;;;;;;494248;240;1099;-66
2021/09/04 03:06:30;;;;;;;;;;;21.00;62.40;;;;;;494001;240;1237;-66
2021/09/04 03:08:33;;;;;;;;;;;21.10;62.20;;;;;;494094;240;1063;-66
2021/09/04 03:10:34;;;;;;;;;;;20.80;62.80;;;;;;494045;240;1424;-65
2021/09/04 03:12:35;;;;;;;;;;;20.60;63.60;;;;;;494501;240;2131;-66
2021/09/04 03:14:38;;;;;;;;;;;20.40;64.30;;;;;;494492;240;1048;-66
2021/09/04 03:16:38;;;;;;;;;;;20.20;64.80;;;;;;493821;241;1449;-65
2021/09/04 03:18:39;;;;;;;;;;;20.10;65.30;;;;;;494065;240;1060;-66
2021/09/04 03:20:40;;;;;;;;;;;20.00;65.60;;;;;;494108;240;1203;-66
2021/09/04 03:22:42;;;;;;;;;;;20.00;65.90;;;;;;494154;240;1094;-66
2021/09/04 03:24:43;;;;;;;;;;;19.90;66.00;;;;;;494104;240;1162;-65
2021/09/04 03:26:44;;;;;;;;;;;19.80;66.20;;;;;;494306;240;1072;-65
2021/09/04 03:28:46;;;;;;;;;;;19.80;66.30;;;;;;494410;240;1180;-65
2021/09/04 03:30:47;;;;;;;;;;;19.80;66.30;;;;;;494145;240;1037;-65
2021/09/04 03:32:48;;;;;;;;;;;19.90;66.10;;;;;;494255;240;2140;-65
2021/09/04 03:34:50;;;;;;;;;;;20.00;66.00;;;;;;494267;240;1196;-65
2021/09/04 03:36:51;;;;;;;;;;;19.80;66.10;;;;;;494021;240;1038;-66
2021/09/04 03:38:52;;;;;;;;;;;19.80;66.30;;;;;;494222;240;1239;-66
2021/09/04 03:40:53;;;;;;;;;;;19.80;66.50;;;;;;494073;240;1059;-66
2021/09/04 03:42:55;;;;;;;;;;;19.70;66.60;;;;;;494553;240;1396;-66
2021/09/04 03:44:56;;;;;;;;;;;19.70;66.70;;;;;;494501;240;1096;-66
2021/09/04 03:46:57;;;;;;;;;;;19.70;66.90;;;;;;494166;240;1075;-66
2021/09/04 03:49:02;;;;;;;;;;;19.70;66.70;;;;;;494117;240;1143;-66
2021/09/04 03:51:01;;;;;;;;;;;19.80;66.50;;;;;;493992;241;1454;-66
2021/09/04 03:53:03;;;;;;;;;;;19.90;66.10;;;;;;494201;240;2214;-66
2021/09/04 03:55:04;;;;;;;;;;;19.90;65.90;;;;;;494395;240;1219;-66
2021/09/04 03:57:05;;;;;;;;;;;19.80;66.10;;;;;;494545;240;1114;-66
2021/09/04 03:59:07;;;;;;;;;;;19.80;66.40;;;;;;494125;240;1043;-65
2021/09/04 04:01:08;;;;;;;;;;;19.70;66.60;;;;;;494059;240;1101;-65
2021/09/04 04:03:09;;;;;;;;;;;19.70;66.60;;;;;;494335;240;1167;-65
2021/09/04 04:05:11;;;;;;;;;;;19.70;66.80;;;;;;494393;240;978;-65
2021/09/04 04:07:12;;;;;;;;;;;19.70;66.80;;;;;;494147;240;1047;-65
2021/09/04 04:09:13;;;;;;;;;;;19.60;66.80;;;;;;494104;240;1035;-65
2021/09/04 04:11:14;;;;;;;;;;;19.80;66.60;;;;;;494150;240;1138;-66
2021/09/04 04:13:16;;;;;;;;;;;19.90;66.00;;;;;;494528;240;2143;-66
2021/09/04 04:15:17;;;;;;;;;;;20.00;65.70;;;;;;494266;240;1143;-66
2021/09/04 04:17:18;;;;;;;;;;;19.90;65.80;;;;;;494210;240;1090;-66
2021/09/04 04:19:20;;;;;;;;;;;19.80;66.10;;;;;;494154;240;1177;-66
2021/09/04 04:21:21;;;;;;;;;;;19.80;66.30;;;;;;494271;240;1517;-66
2021/09/04 04:23:22;;;;;;;;;;;19.70;66.40;;;;;;494556;240;1087;-66
2021/09/04 04:25:24;;;;;;;;;;;19.80;66.50;;;;;;494166;240;1078;-66
2021/09/04 04:27:25;;;;;;;;;;;19.80;66.40;;;;;;494303;240;1088;-66
2021/09/04 04:29:26;;;;;;;;;;;19.80;66.40;;;;;;494472;240;1035;-66
2021/09/04 04:31:28;;;;;;;;;;;20.00;65.80;;;;;;494161;240;1184;-66
2021/09/04 04:33:29;;;;;;;;;;;20.20;65.20;;;;;;494324;240;2183;-66
2021/09/04 04:35:30;;;;;;;;;;;20.20;64.90;;;;;;494045;240;969;-66
2021/09/04 04:37:32;;;;;;;;;;;20.10;65.10;;;;;;494147;240;1073;-66
2021/09/04 04:39:33;;;;;;;;;;;20.00;65.50;;;;;;494189;240;1055;-66
2021/09/04 04:41:34;;;;;;;;;;;19.90;65.80;;;;;;494071;240;1275;-66
2021/09/04 04:43:36;;;;;;;;;;;19.90;66.00;;;;;;494127;240;1066;-66
2021/09/04 04:45:37;;;;;;;;;;;19.80;66.30;;;;;;494258;240;1085;-66
2021/09/04 04:47:38;;;;;;;;;;;19.80;66.40;;;;;;494063;240;1193;-66
2021/09/04 04:49:39;;;;;;;;;;;19.90;66.10;;;;;;494097;240;1160;-66
2021/09/04 04:51:41;;;;;;;;;;;20.10;65.30;;;;;;494019;240;1231;-66
2021/09/04 04:53:42;;;;;;;;;;;20.30;64.70;;;;;;494041;240;2186;-66
2021/09/04 04:55:44;;;;;;;;;;;20.30;64.50;;;;;;494069;240;996;-66
2021/09/04 04:57:45;;;;;;;;;;;20.20;64.90;;;;;;494062;240;1062;-66
2021/09/04 04:59:46;;;;;;;;;;;20.00;65.30;;;;;;494080;240;1180;-66
2021/09/04 05:01:47;;;;;;;;;;;19.90;65.80;;;;;;494077;240;1362;-66
2021/09/04 05:03:49;;;;;;;;;;;19.90;66.10;;;;;;494081;240;1162;-66
2021/09/04 05:05:50;;;;;;;;;;;19.80;66.10;;;;;;494558;240;1063;-66
2021/09/04 05:07:51;;;;;;;;;;;19.80;66.30;;;;;;494510;240;1155;-66
2021/09/04 05:09:53;;;;;;;;;;;19.80;66.40;;;;;;494317;240;1044;-65
2021/09/04 05:11:54;;;;;;;;;;;19.70;66.50;;;;;;493992;240;1205;-65
2021/09/04 05:13:55;;;;;;;;;;;19.80;66.50;;;;;;494267;240;2112;-66
2021/09/04 05:15:57;;;;;;;;;;;20.00;65.80;;;;;;494060;240;1072;-66
2021/09/04 05:17:58;;;;;;;;;;;20.20;65.20;;;;;;494094;240;1173;-66
2021/09/04 05:20:00;;;;;;;;;;;20.30;64.50;;;;;;494123;240;1185;-66
2021/09/04 05:22:01;;;;;;;;;;;20.50;64.00;;;;;;494233;240;1124;-66
2021/09/04 05:24:02;;;;;;;;;;;20.50;63.60;;;;;;494095;240;940;-66
2021/09/04 05:26:04;;;;;;;;;;;20.70;63.00;;;;;;494280;240;1055;-66
2021/09/04 05:28:05;;;;;;;;;;;20.70;63.20;;;;;;494116;240;1143;-66
2021/09/04 05:30:06;;;;;;;;;;;20.50;63.80;;;;;;494130;240;1072;-66
2021/09/04 05:32:08;;;;;;;;;;;20.30;64.40;;;;;;494173;240;1094;-66
2021/09/04 05:34:09;;;;;;;;;;;20.20;65.00;;;;;;494273;240;2175;-66
2021/09/04 05:36:10;;;;;;;;;;;20.00;65.30;;;;;;494041;240;1081;-66
2021/09/04 05:38:12;;;;;;;;;;;20.00;65.50;;;;;;494005;240;1147;-66
2021/09/04 05:40:13;;;;;;;;;;;19.90;65.80;;;;;;494346;240;1083;-66
2021/09/04 05:42:14;;;;;;;;;;;19.90;66.00;;;;;;494220;240;1195;-66
2021/09/04 05:44:16;;;;;;;;;;;19.90;66.00;;;;;;494250;240;1073;-66
2021/09/04 05:46:17;;;;;;;;;;;20.20;65.40;;;;;;494078;240;1132;-66
2021/09/04 05:48:18;;;;;;;;;;;20.30;64.70;;;;;;494503;240;1079;-66
2021/09/04 05:50:19;;;;;;;;;;;20.50;64.10;;;;;;494059;240;1615;-66
2021/09/04 05:52:21;;;;;;;;;;;20.40;64.10;;;;;;493983;240;2239;-66
2021/09/04 05:54:22;;;;;;;;;;;20.20;64.60;;;;;;494069;240;1037;-66
2021/09/04 05:56:23;;;;;;;;;;;20.20;65.10;;;;;;494144;240;1051;-66
2021/09/04 05:58:25;;;;;;;;;;;20.00;65.50;;;;;;494505;240;1039;-66
2021/09/04 06:00:26;;;;;;;;;;;19.90;65.80;;;;;;494072;240;1071;-66
2021/09/04 06:02:27;;;;;;;;;;;19.90;66.00;;;;;;494064;240;1099;-66
2021/09/04 06:04:29;;;;;;;;;;;19.80;66.10;;;;;;494037;240;1123;-66
2021/09/04 06:06:30;;;;;;;;;;;19.80;66.10;;;;;;494178;240;1550;-66
2021/09/04 06:08:31;;;;;;;;;;;19.80;66.20;;;;;;494171;240;1097;-66
2021/09/04 06:10:33;;;;;;;;;;;19.80;66.40;;;;;;494103;240;1376;-66
2021/09/04 06:12:34;;;;;;;;;;;19.70;66.60;;;;;;494198;240;2147;-66
2021/09/04 06:14:35;;;;;;;;;;;19.80;66.60;;;;;;494367;240;1209;-66
2021/09/04 06:16:37;;;;;;;;;;;19.80;66.60;;;;;;494076;240;1236;-66
2021/09/04 06:18:38;;;;;;;;;;;19.90;66.10;;;;;;494390;240;1106;-66
2021/09/04 06:20:39;;;;;;;;;;;19.80;66.10;;;;;;494095;240;1211;-66
2021/09/04 06:22:41;;;;;;;;;;;19.80;66.30;;;;;;494114;240;1240;-66
2021/09/04 06:24:42;;;;;;;;;;;19.80;66.40;;;;;;494165;240;1061;-66
2021/09/04 06:26:43;;;;;;;;;;;19.80;66.50;;;;;;493943;240;1134;-66
2021/09/04 06:28:45;;;;;;;;;;;19.70;66.40;;;;;;494056;240;1134;-66
2021/09/04 06:30:46;;;;;;;;;;;19.80;66.20;;;;;;494222;240;1115;-66
2021/09/04 06:32:47;;;;;;;;;;;19.80;66.30;;;;;;494196;240;2139;-66
2021/09/04 06:34:49;;;;;;;;;;;19.80;66.50;;;;;;494078;240;1221;-66
2021/09/04 06:36:50;;;;;;;;;;;19.80;66.30;;;;;;494212;240;1197;-66
2021/09/04 06:38:51;;;;;;;;;;;19.80;66.40;;;;;;494046;240;1142;-66
2021/09/04 06:40:52;;;;;;;;;;;20.00;65.90;;;;;;494090;240;1120;-66
2021/09/04 06:42:54;;;;;;;;;;;20.20;65.30;;;;;;494046;240;1200;-66
2021/09/04 06:44:55;;;;;;;;;;;20.20;64.70;;;;;;494092;240;1091;-66
2021/09/04 06:46:56;;;;;;;;;;;20.20;64.80;;;;;;493967;240;1188;-66
2021/09/04 06:48:58;;;;;;;;;;;20.10;65.30;;;;;;494220;240;1076;-66
2021/09/04 06:50:59;;;;;;;;;;;20.00;65.60;;;;;;494078;240;1169;-66
2021/09/04 06:53:01;;;;;;;;;;;19.90;65.70;;;;;;494339;240;2134;-66
2021/09/04 06:55:02;;;;;;;;;;;19.80;66.00;;;;;;494104;240;1079;-66
2021/09/04 06:57:04;;;;;;;;;;;19.80;66.10;;;;;;494048;240;1090;-66
2021/09/04 06:59:05;;;;;;;;;;;19.80;66.20;;;;;;494065;241;1257;-66
2021/09/04 07:01:06;;;;;;;;;;;19.80;66.00;;;;;;494045;240;1422;-66
2021/09/04 07:03:07;;;;;;;;;;;19.80;66.20;;;;;;494350;240;1070;-66
2021/09/04 07:05:09;;;;;;;;;;;19.80;66.30;;;;;;494321;240;1068;-66
2021/09/04 07:07:10;;;;;;;;;;;19.70;66.30;;;;;;494184;240;1178;-66
2021/09/04 07:09:11;;;;;;;;;;;19.70;66.40;;;;;;494353;240;1081;-65
2021/09/04 07:11:13;;;;;;;;;;;19.70;66.40;;;;;;494089;239;1125;-65
2021/09/04 07:13:14;;;;;;;;;;;19.80;66.30;;;;;;494515;240;2187;-65
2021/09/04 07:15:15;;;;;;;;;;;19.80;66.20;;;;;;494086;240;1053;-65
2021/09/04 07:17:17;;;;;;;;;;;19.90;66.00;;;;;;494189;240;1186;-65
2021/09/04 07:19:18;;;;;;;;;;;19.80;66.10;;;;;;494510;240;1017;-65
2021/09/04 07:21:19;;;;;;;;;;;19.90;65.90;;;;;;494176;240;1188;-65
2021/09/04 07:23:21;;;;;;;;;;;19.90;65.90;;;;;;494526;240;1125;-65
2021/09/04 07:25:22;;;;;;;;;;;19.80;66.00;;;;;;494507;240;1070;-66
2021/09/04 07:27:23;;;;;;;;;;;19.80;66.10;;;;;;494095;240;1063;-66
2021/09/04 07:29:25;;;;;;;;;;;19.90;65.90;;;;;;494147;240;1023;-66
2021/09/04 07:31:26;;;;;;;;;;;20.20;65.10;;;;;;494004;240;1086;-66
2021/09/04 07:33:27;;;;;;;;;;;20.40;64.40;;;;;;494060;240;2123;-66
2021/09/04 07:35:28;;;;;;;;;;;20.30;64.30;;;;;;494128;240;1203;-66
2021/09/04 07:37:30;;;;;;;;;;;20.20;64.80;;;;;;494000;240;1085;-66
2021/09/04 07:39:31;;;;;;;;;;;20.00;65.30;;;;;;494104;240;1089;-66
2021/09/04 07:41:32;;;;;;;;;;;20.00;65.70;;;;;;494092;240;1057;-66
2021/09/04 07:43:34;;;;;;;;;;;19.90;65.90;;;;;;494550;240;1131;-66
2021/09/04 07:45:35;;;;;;;;;;;19.80;66.10;;;;;;494096;240;1722;-66
2021/09/04 07:47:36;;;;;;;;;;;19.80;66.30;;;;;;494269;240;1104;-66
2021/09/04 07:49:38;;;;;;;;;;;19.90;66.00;;;;;;494135;240;1064;-66
2021/09/04 07:51:39;;;;;;;;;;;20.00;65.70;;;;;;494164;240;1111;-66
2021/09/04 07:53:40;;;;;;;;;;;19.90;65.70;;;;;;494543;240;2182;-66
2021/09/04 07:55:42;;;;;;;;;;;19.90;65.80;;;;;;494470;240;1086;-66
2021/09/04 07:57:43;;;;;;;;;;;19.90;65.90;;;;;;494097;240;1074;-66
2021/09/04 07:59:44;;;;;;;;;;;19.80;66.10;;;;;;494585;240;1083;-66
2021/09/04 08:01:46;;;;;;;;;;;19.80;66.20;;;;;;494367;240;1604;-66
2021/09/04 08:03:47;;;;;;;;;;;19.90;66.00;;;;;;494139;240;1091;-66
2021/09/04 08:05:48;;;;;;;;;;;20.10;65.30;;;;;;494415;240;1118;-66
2021/09/04 08:07:50;;;;;;;;;;;20.20;64.70;;;;;;494451;240;1064;-66
2021/09/04 08:09:51;;;;;;;;;;;20.20;64.70;;;;;;494462;240;1088;-66
2021/09/04 08:11:52;;;;;;;;;;;20.10;65.10;;;;;;494295;240;1052;-66
2021/09/04 08:13:54;;;;;;;;;;;20.00;65.40;;;;;;494060;240;2198;-66
2021/09/04 08:15:55;;;;;;;;;;;19.90;65.70;;;;;;494492;240;1147;-66
2021/09/04 08:17:56;;;;;;;;;;;19.90;65.90;;;;;;494217;240;1101;-66
2021/09/04 08:19:58;;;;;;;;;;;19.80;66.10;;;;;;494573;240;1061;-66
2021/09/04 08:21:59;;;;;;;;;;;20.10;65.40;;;;;;494161;240;1349;-66
2021/09/04 08:24:00;;;;;;;;;;;20.30;64.80;;;;;;494461;240;999;-66
2021/09/04 08:26:02;;;;;;;;;;;20.30;64.40;;;;;;494103;240;1065;-66
2021/09/04 08:28:03;;;;;;;;;;;20.20;64.70;;;;;;494192;240;1060;-66
2021/09/04 08:30:04;;;;;;;;;;;20.10;65.10;;;;;;494566;240;1136;-66
2021/09/04 08:32:06;;;;;;;;;;;20.00;65.50;;;;;;494022;240;1236;-66
2021/09/04 08:34:07;;;;;;;;;;;19.90;65.80;;;;;;494103;240;2174;-65
2021/09/04 08:36:08;;;;;;;;;;;19.90;66.00;;;;;;494049;240;1144;-65
2021/09/04 08:38:10;;;;;;;;;;;19.80;66.10;;;;;;494580;240;1084;-66
2021/09/04 08:40:11;;;;;;;;;;;19.80;66.30;;;;;;494135;240;1041;-66
2021/09/04 08:42:12;;;;;;;;;;;19.90;66.10;;;;;;494014;240;1110;-66
2021/09/04 08:44:14;;;;;;;;;;;19.80;66.10;;;;;;494337;240;1036;-66
2021/09/04 08:46:15;;;;;;;;;;;19.70;66.30;;;;;;494042;240;1071;-66
2021/09/04 08:48:16;;;;;;;;;;;19.70;66.40;;;;;;494459;240;1192;-66
2021/09/04 08:50:18;;;;;;;;;;;19.70;66.40;;;;;;494502;240;1057;-66
2021/09/04 08:52:19;;;;;;;;;;;19.80;66.40;;;;;;494153;240;1164;-66
2021/09/04 08:54:20;;;;;;;;;;;19.90;66.00;;;;;;494548;240;2156;-66
2021/09/04 08:56:22;;;;;;;;;;;20.10;65.30;;;;;;494244;240;1094;-66
2021/09/04 08:58:23;;;;;;;;;;;20.30;64.70;;;;;;494511;240;1129;-66
2021/09/04 09:00:24;;;;;;;;;;;20.40;64.10;;;;;;494587;240;1186;-66
2021/09/04 09:02:26;;;;;;;;;;;20.30;64.30;;;;;;494081;240;1207;-66
2021/09/04 09:04:27;;;;;;;;;;;20.10;64.90;;;;;;494116;240;1047;-66
2021/09/04 09:06:28;;;;;;;;;;;20.00;65.40;;;;;;494017;237;1283;-66
2021/09/04 09:08:30;;;;;;;;;;;19.90;65.70;;;;;;494536;240;1192;-66
2021/09/04 09:10:31;;;;;;;;;;;19.80;66.00;;;;;;494166;240;1076;-66
2021/09/04 09:12:32;;;;;;;;;;;19.80;66.10;;;;;;494167;240;1166;-66
2021/09/04 09:14:34;;;;;;;;;;;19.80;66.20;;;;;;494396;240;2156;-66
2021/09/04 09:16:35;;;;;;;;;;;19.80;66.10;;;;;;493972;240;1409;-66
2021/09/04 09:18:36;;;;;;;;;;;19.80;66.10;;;;;;494018;240;1077;-66
2021/09/04 09:20:38;;;;;;;;;;;19.80;66.20;;;;;;494482;240;1266;-66
2021/09/04 09:22:39;;;;;;;;;;;19.80;66.30;;;;;;494133;240;1116;-66
2021/09/04 09:24:40;;;;;;;;;;;19.80;66.30;;;;;;494105;240;1021;-66
2021/09/04 09:26:42;;;;;;;;;;;19.80;65.90;;;;;;494005;240;1342;-66
2021/09/04 09:28:43;;;;;;;;;;;19.80;66.10;;;;;;494107;240;1192;-66
2021/09/04 09:30:44;;;;;;;;;;;19.80;66.20;;;;;;494507;240;1159;-66
2021/09/04 09:32:46;;;;;;;;;;;19.70;66.30;;;;;;494274;240;1120;-65
2021/09/04 09:34:48;;;;;;;;;;;19.80;66.40;;;;;;494346;240;2144;-65
2021/09/04 09:36:49;;;;;;;;;;;19.90;66.00;;;;;;494219;240;1488;-66
2021/09/04 09:38:50;;;;;;;;;;;20.00;65.40;;;;;;494214;240;1034;-66
2021/09/04 09:40:52;;;;;;;;;;;20.10;65.30;;;;;;494547;240;1136;-66
2021/09/04 09:42:53;;;;;;;;;;;20.00;65.40;;;;;;494078;241;1394;-66
2021/09/04 09:44:54;;;;;;;;;;;19.90;65.80;;;;;;494292;240;1058;-66
2021/09/04 09:46:55;;;;;;;;;;;19.90;65.90;;;;;;494024;240;1077;-66
2021/09/04 09:48:57;;;;;;;;;;;19.80;66.00;;;;;;494033;240;1117;-66
2021/09/04 09:50:58;;;;;;;;;;;19.80;66.10;;;;;;494134;240;1077;-66
2021/09/04 09:53:00;;;;;;;;;;;19.80;66.10;;;;;;494159;240;1167;-66
2021/09/04 09:55:01;;;;;;;;;;;19.90;66.00;;;;;;494488;240;2136;-66
2021/09/04 09:57:02;;;;;;;;;;;19.80;66.10;;;;;;494502;240;1048;-66
2021/09/04 09:59:04;;;;;;;;;;;19.90;65.90;;;;;;494120;240;1081;-66
2021/09/04 10:01:05;;;;;;;;;;;19.90;65.80;;;;;;494528;240;1106;-66
2021/09/04 10:03:06;;;;;;;;;;;19.80;66.10;;;;;;494385;240;1095;-66
2021/09/04 10:05:08;;;;;;;;;;;19.70;66.30;;;;;;494310;240;1104;-66
2021/09/04 10:07:09;;;;;;;;;;;19.70;66.50;;;;;;494015;240;1421;-66
2021/09/04 10:09:10;;;;;;;;;;;19.80;66.50;;;;;;494220;240;1197;-66
2021/09/04 10:11:11;;;;;;;;;;;19.80;66.20;;;;;;494369;240;1151;-66
2021/09/04 10:13:13;;;;;;;;;;;19.80;66.10;;;;;;494547;240;1170;-66
2021/09/04 10:15:14;;;;;;;;;;;19.80;66.00;;;;;;494540;240;2191;-66
2021/09/04 10:17:15;;;;;;;;;;;19.90;65.90;;;;;;494143;240;1702;-66
2021/09/04 10:19:17;;;;;;;;;;;20.10;65.40;;;;;;494046;240;1181;-66
2021/09/04 10:21:18;;;;;;;;;;;20.30;64.70;;;;;;494083;240;1073;-66
2021/09/04 10:23:20;;;;;;;;;;;20.30;64.40;;;;;;494193;240;1181;-66
2021/09/04 10:25:21;;;;;;;;;;;20.20;64.70;;;;;;494317;240;1072;-66
2021/09/04 10:27:22;;;;;;;;;;;20.00;65.10;;;;;;494239;240;1039;-66
2021/09/04 10:29:23;;;;;;;;;;;20.00;65.50;;;;;;494439;240;1048;-66
2021/09/04 10:31:25;;;;;;;;;;;19.90;65.80;;;;;;494087;240;1094;-66
2021/09/04 10:33:27;;;;;;;;;;;20.00;65.80;;;;;;494440;240;1006;-66
2021/09/04 10:35:28;;;;;;;;;;;20.10;65.20;;;;;;494090;240;2179;-66
2021/09/04 10:37:29;;;;;;;;;;;20.30;64.60;;;;;;494095;240;1195;-66
2021/09/04 10:39:31;;;;;;;;;;;20.20;64.50;;;;;;494398;240;1039;-66
2021/09/04 10:41:32;;;;;;;;;;;20.10;64.90;;;;;;494039;240;1090;-66
2021/09/04 10:43:33;;;;;;;;;;;20.00;65.20;;;;;;494094;240;1084;-66
2021/09/04 10:45:34;;;;;;;;;;;19.90;65.70;;;;;;494377;240;1480;-66
2021/09/04 10:47:36;;;;;;;;;;;19.90;65.70;;;;;;494038;240;1064;-66
2021/09/04 10:49:37;;;;;;;;;;;20.00;65.80;;;;;;494218;240;1094;-66
2021/09/04 10:51:38;;;;;;;;;;;20.20;65.10;;;;;;493996;240;1128;-66
2021/09/04 10:53:40;;;;;;;;;;;20.30;64.50;;;;;;494060;240;1183;-66
2021/09/04 10:55:41;;;;;;;;;;;20.30;64.30;;;;;;494055;240;2190;-66
2021/09/04 10:57:42;;;;;;;;;;;20.20;64.60;;;;;;494092;240;1036;-66
2021/09/04 10:59:44;;;;;;;;;;;20.10;65.10;;;;;;494149;240;1087;-66
2021/09/04 11:01:48;;;;;;;;;;;20.00;65.40;;;;;;494193;240;1207;-66
2021/09/04 11:03:47;;;;;;;;;;;19.90;65.70;;;;;;493952;241;1311;-66
2021/09/04 11:05:48;;;;;;;;;;;19.90;65.90;;;;;;494082;240;1148;-66
2021/09/04 11:07:49;;;;;;;;;;;19.80;66.00;;;;;;494427;240;1186;-66
2021/09/04 11:09:51;;;;;;;;;;;19.80;66.10;;;;;;494129;240;1076;-66
2021/09/04 11:11:52;;;;;;;;;;;19.90;66.00;;;;;;494051;240;1216;-66
2021/09/04 11:13:53;;;;;;;;;;;19.90;66.00;;;;;;494129;240;1073;-66
2021/09/04 11:15:55;;;;;;;;;;;19.80;66.10;;;;;;494431;240;2135;-66
2021/09/04 11:17:56;;;;;;;;;;;19.80;66.20;;;;;;494070;240;1126;-66
2021/09/04 11:19:57;;;;;;;;;;;19.90;66.00;;;;;;494546;240;1159;-66
2021/09/04 11:21:59;;;;;;;;;;;20.10;65.40;;;;;;494027;240;1195;-66
2021/09/04 11:24:00;;;;;;;;;;;20.20;64.90;;;;;;494072;240;1167;-66
2021/09/04 11:26:01;;;;;;;;;;;20.10;65.10;;;;;;494386;240;1405;-66
2021/09/04 11:28:03;;;;;;;;;;;20.00;65.40;;;;;;494528;240;1109;-66
2021/09/04 11:30:04;;;;;;;;;;;19.90;65.80;;;;;;494571;240;1058;-66
2021/09/04 11:32:05;;;;;;;;;;;19.80;66.10;;;;;;493963;240;1494;-66
2021/09/04 11:34:07;;;;;;;;;;;19.80;66.30;;;;;;494229;240;1102;-66
2021/09/04 11:36:08;;;;;;;;;;;19.80;66.30;;;;;;494038;240;2195;-66
2021/09/04 11:38:09;;;;;;;;;;;19.80;66.30;;;;;;494469;240;1094;-66
2021/09/04 11:40:11;;;;;;;;;;;19.80;66.40;;;;;;494386;241;1036;-66
2021/09/04 11:42:12;;;;;;;;;;;20.00;65.80;;;;;;494035;240;1431;-66
2021/09/04 11:44:13;;;;;;;;;;;20.20;65.20;;;;;;494234;240;1159;-66
2021/09/04 11:46:14;;;;;;;;;;;20.10;64.90;;;;;;494018;240;1129;-66
2021/09/04 11:48:16;;;;;;;;;;;20.00;65.20;;;;;;494285;240;1120;-66
2021/09/04 11:50:17;;;;;;;;;;;20.00;65.70;;;;;;494330;240;1076;-66
2021/09/04 11:52:18;;;;;;;;;;;19.90;65.80;;;;;;494046;240;1283;-66
2021/09/04 11:54:20;;;;;;;;;;;19.90;65.90;;;;;;494178;240;1172;-66
2021/09/04 11:56:21;;;;;;;;;;;19.90;65.90;;;;;;494087;240;2152;-66